Thunder radar more information blitzortung!


Radar de pluja more information rain snow radar


Visita la nostra xarxa de llocs de meteo:

Template documentation
and downloads

And another site



No particular awareness of the weather is required.    There are no Weather-warnings

Pagina Historial Weather Underground text

Diari Resum Juny 1, 2017 Unitats:  Mètric    Imperial   Tant
« Previous Dia
SegĂźent Dia »
Diari Setmana Mensual Anual Personalitzada
  Maxima: Minima: Media:
Temperatura: -17.8 °C -9.1 °C -4.4 °C
Punt de rosada: -17.8 °C -13.6 °C -12.2 °C
Humitat: Humidity % 29 % 43 %
Wind Speed: 0 km/h 0 km/h 10.3 km/h
RĂ fegues de vent: 0 km/h - -
Vent:- - South
Pression baro: 0 hPa 34395 hPa -
Precipitacions: 0 mm    
Historical Graphs
 
 
Dades de taula per Juny 1, 2017
Temps Temperatura Punt de rosada Pression baro Vent Wind Speed RĂ fegues de vent Humitat Rainfall Rate (Hourly)
-17.8 °C -17.8 °C 0 hPa Calm     Humidity % 0 mm
00:01 -7.3 °C -12 °C 34533.8 hPa Calm     58 % 0 mm
00:05 -8.6 °C -12.6 °C 34462.7 hPa East 2.6 km/h 5.1 km/h 63 % 0 mm
00:06 -7.3 °C -12 °C 34533.8 hPa Calm     58 % 0 mm
00:15 -8.7 °C -12.6 °C 34462.7 hPa Calm   5.1 km/h 63 % 0 mm
00:25 -8.8 °C -12.7 °C 34462.7 hPa Calm   2.6 km/h 63 % 0 mm
00:35 -8.9 °C -12.8 °C 34428.8 hPa Calm   5.1 km/h 63 % 0 mm
00:45 -8.9 °C -12.8 °C 34428.8 hPa Calm     63 % 0 mm
00:55 -9 °C -12.9 °C 34462.7 hPa Calm     63 % 0 mm
01:05 -9 °C -12.8 °C 34462.7 hPa Calm     64 % 0 mm
01:15 -9 °C -12.8 °C 34462.7 hPa Calm   2.6 km/h 64 % 0 mm
01:25 -8.9 °C -12.9 °C 34462.7 hPa NNE 2.6 km/h 2.6 km/h 63 % 0 mm
01:35 -8.8 °C -12.6 °C 34462.7 hPa North 2.6 km/h 2.6 km/h 64 % 0 mm
01:45 -8.9 °C -12.7 °C 34462.7 hPa Calm     64 % 0 mm
01:55 -9 °C -12.7 °C 34462.7 hPa Calm     65 % 0 mm
02:05 -9.1 °C -12.8 °C 34462.7 hPa NW 2.6 km/h 2.6 km/h 64 % 0 mm
02:15 -9 °C -12.8 °C 34462.7 hPa Calm   2.6 km/h 64 % 0 mm
02:25 -8.7 °C -12.7 °C 34496.6 hPa WSW 2.6 km/h 5.1 km/h 63 % 0 mm
02:35 -8.3 °C -12.2 °C 34496.6 hPa Calm   2.6 km/h 63 % 0 mm
02:45 -8 °C -12.1 °C 34496.6 hPa Calm   5.1 km/h 62 % 0 mm
02:55 -7.8 °C -12.2 °C 34496.6 hPa SE 2.6 km/h 5.1 km/h 60 % 0 mm
03:05 -7.7 °C -12.1 °C 34496.6 hPa SSE 2.6 km/h 5.1 km/h 60 % 0 mm
03:15 -7.5 °C -12.1 °C 34496.6 hPa Calm   5.1 km/h 59 % 0 mm
03:25 -7.4 °C -11.9 °C 34496.6 hPa ENE 2.6 km/h 7.7 km/h 59 % 0 mm
03:35 -7.2 °C -11.9 °C 34496.6 hPa NE 2.6 km/h 7.7 km/h 58 % 0 mm
03:45 -6.8 °C -11.5 °C 34496.6 hPa NE 2.6 km/h 5.1 km/h 58 % 0 mm
04:05 -6.4 °C -11.5 °C 34496.6 hPa NNE 5.1 km/h 7.7 km/h 56 % 0 mm
04:15 -6.3 °C -11.3 °C 34496.6 hPa NE 7.7 km/h 7.7 km/h 56 % 0 mm
04:25 -6.2 °C -11.4 °C 34496.6 hPa NNE 7.7 km/h 7.7 km/h 55 % 0 mm
04:35 -5.9 °C -11.4 °C 34496.6 hPa NNE 7.7 km/h 10.3 km/h 53 % 0 mm
04:45 -5.5 °C -11.1 °C 34496.6 hPa NE 5.1 km/h 7.7 km/h 53 % 0 mm
04:55 -5.5 °C -11.4 °C 34496.6 hPa ENE 2.6 km/h 10.3 km/h 51 % 0 mm
05:05 -4.8 °C -10.9 °C 34496.6 hPa ENE 2.6 km/h 2.6 km/h 50 % 0 mm
05:15 -4.6 °C -10.9 °C 34496.6 hPa Calm   7.7 km/h 49 % 0 mm
05:25 -4.8 °C -11.2 °C 34496.6 hPa ENE 2.6 km/h 10.3 km/h 48 % 0 mm
05:35 -4.7 °C -11.3 °C 34496.6 hPa ENE 7.7 km/h 10.3 km/h 47 % 0 mm
05:45 -4.2 °C -11.1 °C 34496.6 hPa ESE 5.1 km/h 7.7 km/h 46 % 0 mm
05:55 -3.8 °C -10.9 °C 34496.6 hPa SSE 2.6 km/h 10.3 km/h 45 % 0 mm
06:05 -3.6 °C -10.9 °C 34496.6 hPa SW 2.6 km/h 5.1 km/h 44 % 0 mm
11:08 -3.3 °C -10.7 °C 34496.6 hPa SW 11.1 km/h 11.1 km/h 44 % 0 mm
11:13 -3.7 °C -11.2 °C 34496.6 hPa SE 9 km/h 9 km/h 43 % 0 mm
11:18 -3.4 °C -10.9 °C 34496.6 hPa SSW 9 km/h 9 km/h 43 % 0 mm
11:23 -3.5 °C -11 °C 34496.6 hPa West 12.7 km/h 12.7 km/h 43 % 0 mm
11:28 -3.7 °C -11.2 °C 34496.6 hPa WSW 15 km/h 15 km/h 43 % 0 mm
11:33 -3.8 °C -11.3 °C 34496.6 hPa WSW 15 km/h 15 km/h 43 % 0 mm
11:38 -3.7 °C -11.4 °C 34496.6 hPa SW 15 km/h 15 km/h 42 % 0 mm
11:43 -3.5 °C -11.2 °C 34496.6 hPa SSW 11.9 km/h 11.9 km/h 42 % 0 mm
11:48 -3.6 °C -11.4 °C 34496.6 hPa SW 15 km/h 15 km/h 41 % 0 mm
11:53 -3.1 °C -11.1 °C 34496.6 hPa WSW 3.1 km/h   41 % 0 mm
11:58 -3.3 °C -11.2 °C 34496.6 hPa SW 11.9 km/h 11.9 km/h 41 % 0 mm
12:03 -3.1 °C -11.2 °C 34496.6 hPa ESE 15 km/h 15 km/h 40 % 0 mm
12:04 -3.1 °C -11.2 °C 34496.6 hPa NE 11.1 km/h 11.1 km/h 40 % 0 mm
12:09 -3.5 °C -11.8 °C 34496.6 hPa ESE 17.9 km/h 17.9 km/h 39 % 0 mm
12:14 -2.9 °C -11.1 °C 34496.6 hPa WSW 11.9 km/h 11.9 km/h 40 % 0 mm
12:19 -2.5 °C -11.2 °C 34496.6 hPa SW 11.9 km/h 11.9 km/h 38 % 0 mm
12:24 -2.8 °C -11.4 °C 34496.6 hPa WNW 9 km/h 9 km/h 38 % 0 mm
12:29 -2.7 °C -11.3 °C 34496.6 hPa SSW 6 km/h 6 km/h 38 % 0 mm
12:34 -2.6 °C -11.3 °C 34496.6 hPa SE 11.9 km/h 11.9 km/h 38 % 0 mm
12:39 -2.5 °C -11.2 °C 34496.6 hPa SSE 23.8 km/h 23.8 km/h 38 % 0 mm
12:44 -2.4 °C -11.3 °C 34496.6 hPa ESE 6 km/h 6 km/h 37 % 0 mm
12:49 -2.6 °C -11.2 °C 34496.6 hPa SSE 15 km/h 15 km/h 38 % 0 mm
12:54 -3 °C -11.4 °C 34496.6 hPa ENE 9.3 km/h 9.3 km/h 39 % 0 mm
12:59 -2.7 °C -11.1 °C 34496.6 hPa West 17.9 km/h 17.9 km/h 39 % 0 mm
13:04 -2.4 °C -10.8 °C 34496.6 hPa SE 11.9 km/h 11.9 km/h 39 % 0 mm
13:09 -2.5 °C -10.9 °C 34496.6 hPa ESE 15.6 km/h 15.6 km/h 39 % 0 mm
13:14 -2.8 °C -11.2 °C 34496.6 hPa SSE 23.8 km/h 23.8 km/h 39 % 0 mm
13:19 -2.9 °C -11.3 °C 34462.7 hPa NNE 23.8 km/h 23.8 km/h 39 % 0 mm
13:24 -3.1 °C -11.4 °C 34462.7 hPa ENE 17.9 km/h 17.9 km/h 39 % 0 mm
13:29 -2.9 °C -11.3 °C 34462.7 hPa ESE 26.9 km/h 26.9 km/h 39 % 0 mm
13:34 -2.9 °C -11.5 °C 34462.7 hPa ENE 20.9 km/h 20.9 km/h 38 % 0 mm
13:39 -2.4 °C -11.1 °C 34462.7 hPa South 9 km/h 9 km/h 38 % 0 mm
13:44 -1.9 °C -10.9 °C 34462.7 hPa South 15 km/h 15 km/h 37 % 0 mm
13:49 -1.9 °C -11.1 °C 34428.8 hPa SSE 19.6 km/h 19.6 km/h 36 % 0 mm
13:54 -1.7 °C -11.1 °C 34428.8 hPa SW 15 km/h 15 km/h 35 % 0 mm
13:59 -1.6 °C -11 °C 34428.8 hPa SW 20.9 km/h 20.9 km/h 35 % 0 mm
14:04 -1.6 °C -11 °C 34462.7 hPa SSE 15 km/h 15 km/h 35 % 0 mm
14:09 -1.9 °C -11.3 °C 34462.7 hPa SW 20.9 km/h 20.9 km/h 35 % 0 mm
14:14 -1.8 °C -11.7 °C 34462.7 hPa South 9.8 km/h 9.8 km/h 33 % 0 mm
14:19 -1.7 °C -11.6 °C 34462.7 hPa SSW 6.3 km/h 6.3 km/h 33 % 0 mm
14:24 -1.7 °C -11.6 °C 34462.7 hPa SSE 17.9 km/h 17.9 km/h 33 % 0 mm
14:29 -1.8 °C -11.5 °C 34462.7 hPa SW 26.9 km/h 26.9 km/h 34 % 0 mm
14:34 -1.6 °C -11.8 °C 34462.7 hPa West 19.6 km/h 19.6 km/h 32 % 0 mm
14:39 -1.8 °C -12 °C 34462.7 hPa South 9 km/h 9 km/h 32 % 0 mm
14:44 -1.7 °C -11.9 °C 34462.7 hPa WSW 15 km/h 15 km/h 32 % 0 mm
14:49 -1.7 °C -12.1 °C 34462.7 hPa SSW 20.9 km/h 20.9 km/h 31 % 0 mm
14:54 -1.8 °C -12.2 °C 34462.7 hPa SW 20.9 km/h 20.9 km/h 31 % 0 mm
14:59 -1.6 °C -12.1 °C 34462.7 hPa South 25.4 km/h 25.4 km/h 31 % 0 mm
15:04 -1.6 °C -12.1 °C 34462.7 hPa SW 9 km/h 9 km/h 31 % 0 mm
15:09 -1.4 °C -11.9 °C 34462.7 hPa SW 20.9 km/h 20.9 km/h 31 % 0 mm
15:14 -1.8 °C -12.2 °C 34462.7 hPa SW 15 km/h 15 km/h 31 % 0 mm
15:19 -1.7 °C -12.2 °C 34462.7 hPa SW 20.9 km/h 20.9 km/h 31 % 0 mm
15:24 -1.6 °C -12.3 °C 34462.7 hPa SW 9.3 km/h 9.3 km/h 30 % 0 mm
15:29 -1.5 °C -12.3 °C 34462.7 hPa WSW 17.9 km/h 17.9 km/h 30 % 0 mm
15:34 -1.7 °C -12.4 °C 34462.7 hPa SSW 20.9 km/h 20.9 km/h 30 % 0 mm
15:39 -1.6 °C -12.3 °C 34462.7 hPa WSW 12.7 km/h 12.7 km/h 30 % 0 mm
15:44 -1.6 °C -12.7 °C 34462.7 hPa South 20.9 km/h 20.9 km/h 29 % 0 mm
15:49 -1.4 °C -12.2 °C 34462.7 hPa SSW 20.9 km/h 20.9 km/h 30 % 0 mm
15:54 -1.8 °C -12.6 °C 34462.7 hPa WSW 15 km/h 15 km/h 30 % 0 mm
15:55 -1.8 °C -12.6 °C 34462.7 hPa SW 15 km/h 15 km/h 30 % 0 mm
16:00 -1.7 °C -12.7 °C 34462.7 hPa SW 22.5 km/h 22.5 km/h 29 % 0 mm
16:05 -1.8 °C -12.5 °C 34462.7 hPa SSW 20.9 km/h 20.9 km/h 30 % 0 mm
16:10 -1.6 °C -12.7 °C 34462.7 hPa SW 29.5 km/h 29.5 km/h 29 % 0 mm
16:15 -1.8 °C -12.6 °C 34462.7 hPa WSW 26.9 km/h 26.9 km/h 30 % 0 mm
16:20 -1.8 °C -12.6 °C 34428.8 hPa SW 20.9 km/h 20.9 km/h 30 % 0 mm
16:25 -1.8 °C -12.6 °C 34428.8 hPa South 15 km/h 15 km/h 30 % 0 mm
16:30 -1.7 °C -12.4 °C 34428.8 hPa SW 15 km/h 15 km/h 30 % 0 mm
16:35 -2 °C -12.7 °C 34395 hPa SSW 23.8 km/h 23.8 km/h 30 % 0 mm
16:40 -1.8 °C -12.6 °C 34395 hPa WSW 20.9 km/h 20.9 km/h 30 % 0 mm
16:45 -2 °C -12.7 °C 34395 hPa SSW 20.9 km/h 20.9 km/h 30 % 0 mm
16:50 -1.8 °C -12.5 °C 34428.8 hPa West 17.9 km/h 17.9 km/h 30 % 0 mm
16:55 -2 °C -12.9 °C 34428.8 hPa SW 26.9 km/h 26.9 km/h 29 % 0 mm
17:00 -2.2 °C -12.8 °C 34428.8 hPa SSW 29.8 km/h 29.8 km/h 30 % 0 mm
17:05 -1.8 °C -12.6 °C 34395 hPa SW 15 km/h 15 km/h 30 % 0 mm
17:10 -1.8 °C -12.6 °C 34395 hPa West 17.9 km/h 17.9 km/h 30 % 0 mm
17:15 -1.8 °C -12.5 °C 34395 hPa South 15 km/h 15 km/h 30 % 0 mm
17:20 -1.8 °C -12.5 °C 34428.8 hPa SSW 17.9 km/h 17.9 km/h 30 % 0 mm
17:25 -1.8 °C -12.6 °C 34428.8 hPa SW 23.8 km/h 23.8 km/h 30 % 0 mm
17:30 -1.9 °C -12.7 °C 34428.8 hPa SW 17.9 km/h 17.9 km/h 30 % 0 mm
17:35 -1.9 °C -12.9 °C 34428.8 hPa SSW 16.1 km/h 16.1 km/h 29 % 0 mm
17:40 -1.9 °C -12.7 °C 34428.8 hPa WSW 15 km/h 15 km/h 30 % 0 mm
17:45 -1.9 °C -12.6 °C 34428.8 hPa West 7.6 km/h 7.6 km/h 30 % 0 mm
17:50 -1.8 °C -12.6 °C 34395 hPa South 20.3 km/h 20.3 km/h 30 % 0 mm
17:55 -1.9 °C -12.6 °C 34395 hPa South 6.8 km/h 6.8 km/h 30 % 0 mm
18:00 -1.9 °C -12.9 °C 34395 hPa SSW 15 km/h 15 km/h 29 % 0 mm
18:05 -1.8 °C -12.6 °C 34395 hPa SW 17.9 km/h 17.9 km/h 30 % 0 mm
18:10 -2 °C -12.9 °C 34395 hPa ESE 6 km/h 6 km/h 29 % 0 mm
18:15 -2.6 °C -13.2 °C 34395 hPa SSW 11.9 km/h 11.9 km/h 30 % 0 mm
18:20 -2.3 °C -13 °C 34428.8 hPa SSW 11.9 km/h 11.9 km/h 30 % 0 mm
18:25 -2.2 °C -12.9 °C 34428.8 hPa SSW 11.9 km/h 11.9 km/h 30 % 0 mm
18:30 -2.3 °C -12.9 °C 34428.8 hPa SSE 6 km/h 6 km/h 30 % 0 mm
18:35 -2.4 °C -13.1 °C 34428.8 hPa SSW 11.9 km/h 11.9 km/h 30 % 0 mm
18:40 -2.3 °C -12.7 °C 34428.8 hPa WSW 11.9 km/h 11.9 km/h 31 % 0 mm
18:45 -2.3 °C -12.7 °C 34428.8 hPa SSE 11.9 km/h 11.9 km/h 31 % 0 mm
18:50 -2.4 °C -12.8 °C 34395 hPa SSE 11.9 km/h 11.9 km/h 31 % 0 mm
18:55 -2.6 °C -12.9 °C 34395 hPa WSW 20.9 km/h 20.9 km/h 31 % 0 mm
19:00 -2.7 °C -13.1 °C 34395 hPa SW 15 km/h 15 km/h 31 % 0 mm
19:05 -2.7 °C -12.8 °C 34428.8 hPa West 22.5 km/h 22.5 km/h 32 % 0 mm
19:10 -3 °C -13 °C 34428.8 hPa SW 20.9 km/h 20.9 km/h 32 % 0 mm
19:15 -3.3 °C -13.3 °C 34428.8 hPa SW 17.9 km/h 17.9 km/h 32 % 0 mm
19:20 -3.5 °C -13.4 °C 34395 hPa South 17.9 km/h 17.9 km/h 32 % 0 mm
19:25 -3.6 °C -13.6 °C 34395 hPa SSW 15 km/h 15 km/h 32 % 0 mm
19:30 -3.7 °C -13.4 °C 34395 hPa SW 15 km/h 15 km/h 33 % 0 mm
19:35 -3.9 °C -13.6 °C 34395 hPa West 17.9 km/h 17.9 km/h 33 % 0 mm
19:40 -3.9 °C -13.1 °C 34395 hPa SW 16.1 km/h 16.1 km/h 35 % 0 mm
19:45 -4.1 °C -13.2 °C 34395 hPa SW 11.9 km/h 11.9 km/h 35 % 0 mm
19:50 -4.2 °C -13.3 °C 34395 hPa SW 20.9 km/h 20.9 km/h 35 % 0 mm
19:55 -4.3 °C -13.2 °C 34395 hPa SW 15 km/h 15 km/h 36 % 0 mm
20:00 -4.4 °C -13.1 °C 34395 hPa WSW 17.9 km/h 17.9 km/h 37 % 0 mm
20:05 -4.5 °C -13.2 °C 34428.8 hPa SW 23.8 km/h 23.8 km/h 37 % 0 mm
20:10 -4.6 °C -13 °C 34428.8 hPa WSW 11.9 km/h 11.9 km/h 38 % 0 mm
20:15 -4.7 °C -13.1 °C 34428.8 hPa SW 17.9 km/h 17.9 km/h 38 % 0 mm
20:20 -4.7 °C -13.2 °C 34428.8 hPa SW 11.9 km/h 11.9 km/h 38 % 0 mm
20:25 -4.8 °C -13 °C 34428.8 hPa WSW 9 km/h 9 km/h 39 % 0 mm
20:30 -4.9 °C -12.9 °C 34428.8 hPa SSW 11.9 km/h 11.9 km/h 40 % 0 mm
20:35 -4.9 °C -12.9 °C 34462.7 hPa SW 6 km/h 6 km/h 40 % 0 mm
20:40 -5 °C -12.9 °C 34462.7 hPa SSW 10.3 km/h 10.3 km/h 40 % 0 mm
20:45 -5 °C -12.7 °C 34462.7 hPa WSW 9 km/h 9 km/h 41 % 0 mm
20:50 -5.1 °C -12.8 °C 34462.7 hPa WSW 9.3 km/h 9.3 km/h 41 % 0 mm
20:55 -5.1 °C -12.6 °C 34462.7 hPa SW 16.1 km/h 16.1 km/h 42 % 0 mm
21:00 -5.2 °C -12.7 °C 34462.7 hPa WSW 9.8 km/h 9.8 km/h 42 % 0 mm
21:05 -5.2 °C -12.7 °C 34462.7 hPa SW 12.7 km/h 12.7 km/h 42 % 0 mm
21:10 -5.2 °C -12.7 °C 34462.7 hPa WSW 9 km/h 9 km/h 42 % 0 mm
21:15 -5.3 °C -12.8 °C 34462.7 hPa SW 6 km/h 6 km/h 42 % 0 mm
21:20 -5.3 °C -12.9 °C 34462.7 hPa SW 6.8 km/h 6.8 km/h 42 % 0 mm
21:25 -5.4 °C -12.9 °C 34462.7 hPa SW 9 km/h 9 km/h 42 % 0 mm
21:30 -5.5 °C -13 °C 34462.7 hPa SW 6 km/h 6 km/h 42 % 0 mm
21:35 -5.6 °C -12.9 °C 34462.7 hPa SW 6 km/h 6 km/h 43 % 0 mm
21:40 -5.6 °C -12.9 °C 34462.7 hPa SW 6.3 km/h 6.3 km/h 43 % 0 mm
21:45 -5.7 °C -12.9 °C 34462.7 hPa WSW 5.6 km/h   43 % 0 mm
21:50 -5.7 °C -13 °C 34462.7 hPa Calm     43 % 0 mm
21:55 -5.8 °C -13.1 °C 34462.7 hPa Calm     43 % 0 mm
22:00 -5.8 °C -13.1 °C 34462.7 hPa Calm     43 % 0 mm
22:05 -5.9 °C -13 °C 34462.7 hPa Calm     44 % 0 mm
22:10 -5.9 °C -13 °C 34462.7 hPa WSW 6 km/h 6 km/h 44 % 0 mm
22:11 -5.9 °C -13 °C 34462.7 hPa WSW 6 km/h 6 km/h 44 % 0 mm
22:15 -8.2 °C -11.6 °C 34462.7 hPa SW 2.6 km/h 5.1 km/h 67 % 0 mm
22:16 -5.9 °C -13 °C 34462.7 hPa NW 3.7 km/h   44 % 0 mm
22:21 -6 °C -13.1 °C 34462.7 hPa Calm     44 % 0 mm
22:25 -8.1 °C -11.4 °C 34462.7 hPa Calm   5.1 km/h 68 % 0 mm
22:26 -6.1 °C -12.9 °C 34462.7 hPa NNE 3.7 km/h 3.7 km/h 45 % 0 mm
22:31 -6.1 °C -13 °C 34462.7 hPa NE 6 km/h 6 km/h 45 % 0 mm
22:35 -8 °C -11.1 °C 34462.7 hPa Calm   5.1 km/h 70 % 0 mm
22:36 -6.1 °C -12.8 °C 34428.8 hPa NE 3.1 km/h   46 % 0 mm
22:41 -6.2 °C -12.5 °C 34428.8 hPa NE 4.2 km/h 4.2 km/h 48 % 0 mm
22:45 -8 °C -11.1 °C 34462.7 hPa Calm   5.1 km/h 70 % 0 mm
22:46 -6.2 °C -12.2 °C 34428.8 hPa East 3.1 km/h 3.1 km/h 50 % 0 mm
22:51 -6.3 °C -12.1 °C 34462.7 hPa ENE 6 km/h 6 km/h 51 % 0 mm
22:55 -8.1 °C -11.3 °C 34462.7 hPa Calm     69 % 0 mm
22:56 -6.3 °C -12 °C 34462.7 hPa NNE 4.2 km/h 4.2 km/h 52 % 0 mm
23:01 -6.4 °C -11.9 °C 34462.7 hPa NNE 3.1 km/h   53 % 0 mm
23:05 -8.1 °C -11.3 °C 34462.7 hPa Calm   2.6 km/h 69 % 0 mm
23:06 -6.4 °C -11.8 °C 34496.6 hPa Calm     54 % 0 mm
23:11 -6.4 °C -11.8 °C 34496.6 hPa Calm     54 % 0 mm
23:15 -8.2 °C -11.2 °C 34462.7 hPa NE 2.6 km/h 2.6 km/h 70 % 0 mm
23:16 -6.5 °C -11.8 °C 34496.6 hPa SW 6 km/h 6 km/h 54 % 0 mm
23:21 -6.6 °C -11.9 °C 34462.7 hPa Calm     54 % 0 mm
23:25 -8.2 °C -11.3 °C 34462.7 hPa Calm     70 % 0 mm
23:26 -6.6 °C -11.7 °C 34462.7 hPa Calm     55 % 0 mm
23:31 -6.6 °C -11.7 °C 34462.7 hPa Calm     55 % 0 mm
23:35 -8.3 °C -11.3 °C 34428.8 hPa Calm   2.6 km/h 70 % 0 mm
23:36 -6.6 °C -11.8 °C 34496.6 hPa Calm     55 % 0 mm
23:41 -6.7 °C -11.8 °C 34496.6 hPa SW 2.3 km/h   55 % 0 mm
23:45 -8.3 °C -11.3 °C 34428.8 hPa Calm     70 % 0 mm
23:46 -6.7 °C -12.1 °C 34496.6 hPa WSW 3.1 km/h   54 % 0 mm
23:51 -6.7 °C -12.2 °C 34496.6 hPa WNW 6 km/h 6 km/h 53 % 0 mm
23:55 -8.3 °C -11.3 °C 34428.8 hPa NE 2.6 km/h 5.1 km/h 70 % 0 mm
23:56 -6.8 °C -12.3 °C 34496.6 hPa Calm     53 % 0 mm
Meteo Sesrovires
Elogis d' Weather Underground - 1.5 mb

Guio original per  Jim McMurry - jmcmurry@mwt.net Adaptat per a la plantilla per  Wim van der Kuil - Leuven-Template.eu

Trobareu la nostra informacio del temps tambe a:

Weather Underground

AWEKAS